createdAt,value
2023-05-22T00:03:15.060Z,67.98
2023-05-22T00:08:39.143Z,68.30
2023-05-22T00:14:01.401Z,69.01
2023-05-22T00:19:24.522Z,68.76
2023-05-22T00:24:47.194Z,68.47
2023-05-22T00:30:09.532Z,68.56
2023-05-22T00:35:31.879Z,68.67
2023-05-22T00:40:54.414Z,68.93
2023-05-22T00:46:20.077Z,68.95
2023-05-22T00:51:43.320Z,69.39
2023-05-22T00:57:06.743Z,70.01
2023-05-22T01:02:29.285Z,70.69
2023-05-22T01:07:52.743Z,71.40
2023-05-22T01:13:48.665Z,71.96
2023-05-22T01:19:48.003Z,71.92
2023-05-22T01:25:47.788Z,72.12
2023-05-22T01:31:16.711Z,72.62
2023-05-22T01:36:44.429Z,72.95
2023-05-22T01:42:06.802Z,73.11
2023-05-22T01:47:29.220Z,73.20
2023-05-22T01:53:21.588Z,73.44
2023-05-22T01:59:09.559Z,73.70
2023-05-22T02:04:35.015Z,73.67
2023-05-22T02:09:59.300Z,73.57
2023-05-22T02:15:21.849Z,73.47
2023-05-22T02:20:44.169Z,73.88
2023-05-22T02:26:07.595Z,74.37
2023-05-22T02:31:30.382Z,74.39
2023-05-22T02:36:53.452Z,74.16
2023-05-22T02:42:15.889Z,73.90
2023-05-22T02:47:38.541Z,73.89
2023-05-22T02:53:01.025Z,74.19
2023-05-22T02:58:25.743Z,74.52
2023-05-22T03:03:49.192Z,74.42
2023-05-22T03:09:11.950Z,74.48
2023-05-22T03:14:34.318Z,74.53
2023-05-22T03:19:56.643Z,74.75
2023-05-22T03:25:21.459Z,75.20
2023-05-22T03:30:44.848Z,75.65
2023-05-22T03:36:07.352Z,75.82
2023-05-22T03:41:30.461Z,75.59
2023-05-22T03:46:52.944Z,75.69
2023-05-22T03:52:16.751Z,75.75
2023-05-22T03:57:39.509Z,75.77
2023-05-22T04:03:01.971Z,75.18
2023-05-22T04:08:24.979Z,74.60
2023-05-22T04:13:48.300Z,73.72
2023-05-22T04:19:11.252Z,73.08
2023-05-22T04:24:34.270Z,72.71
2023-05-22T04:29:56.633Z,72.03
2023-05-22T04:35:20.161Z,70.99
2023-05-22T04:40:43.326Z,69.88
2023-05-22T04:46:05.641Z,67.97
2023-05-22T04:51:29.517Z,66.07
2023-05-22T04:56:52.417Z,64.65
2023-05-22T05:02:14.923Z,64.34
2023-05-22T05:07:37.866Z,64.29
2023-05-22T05:13:00.296Z,64.04
2023-05-22T05:18:22.798Z,63.40
2023-05-22T05:23:45.126Z,62.37
2023-05-22T05:29:07.553Z,62.55
2023-05-22T05:34:29.879Z,62.34
2023-05-22T05:39:52.262Z,62.31
2023-05-22T05:45:14.896Z,62.00
2023-05-22T05:50:37.393Z,61.23
2023-05-22T05:56:00.150Z,60.99
2023-05-22T06:01:24.673Z,60.62
2023-05-22T06:06:48.231Z,59.47
2023-05-22T06:17:43.870Z,56.92
2023-05-22T06:23:06.213Z,56.18
2023-05-22T06:28:28.510Z,56.16
2023-05-22T06:33:52.430Z,55.67
2023-05-22T06:39:14.983Z,55.12
2023-05-22T06:44:37.357Z,53.90
2023-05-22T06:49:59.727Z,53.12
2023-05-22T06:55:22.422Z,52.42
2023-05-22T07:00:44.850Z,51.93
2023-05-22T07:06:08.209Z,51.00
2023-05-22T07:11:30.679Z,50.66
2023-05-22T07:16:54.141Z,51.13
2023-05-22T07:22:16.672Z,50.88
2023-05-22T07:27:39.150Z,50.97
2023-05-22T07:33:01.633Z,50.99
2023-05-22T07:38:24.559Z,51.33
2023-05-22T07:43:47.084Z,50.22
2023-05-22T07:49:09.550Z,48.54
2023-05-22T07:54:32.440Z,49.10
2023-05-22T07:59:55.046Z,48.64
2023-05-22T08:05:17.725Z,46.50
2023-05-22T08:16:04.872Z,42.88
2023-05-22T08:21:27.257Z,41.17
2023-05-22T08:26:49.647Z,41.15
2023-05-22T08:32:12.353Z,41.38
2023-05-22T08:37:35.159Z,39.75
2023-05-22T08:42:59.296Z,37.60
2023-05-22T08:48:25.691Z,37.59
2023-05-22T08:53:50.146Z,38.62
2023-05-22T08:59:13.318Z,38.00
2023-05-22T09:04:37.535Z,36.46
2023-05-22T09:10:01.572Z,35.88
2023-05-22T09:15:28.076Z,36.36
2023-05-22T09:20:54.981Z,34.54
2023-05-22T09:26:18.838Z,34.10
2023-05-22T09:31:48.213Z,31.46
2023-05-22T09:37:15.418Z,29.12
2023-05-22T09:42:39.722Z,28.95
2023-05-22T09:48:03.931Z,27.98
2023-05-22T09:53:30.485Z,27.58
2023-05-22T09:58:55.483Z,26.35
2023-05-22T10:04:19.368Z,27.45
2023-05-22T10:09:44.607Z,29.36
2023-05-22T10:15:09.766Z,28.42
2023-05-22T10:20:33.345Z,29.50
2023-05-22T10:25:57.346Z,27.41
2023-05-22T10:31:34.411Z,25.75
2023-05-22T10:37:16.916Z,26.78
2023-05-22T10:42:34.217Z,28.21
2023-05-22T10:48:26.488Z,27.85
2023-05-22T10:53:54.216Z,27.99
2023-05-22T10:59:19.177Z,27.16
2023-05-22T11:04:43.781Z,28.56
2023-05-22T11:10:09.202Z,27.41
2023-05-22T11:15:39.016Z,26.37
2023-05-22T11:21:02.766Z,25.83
2023-05-22T11:26:40.097Z,23.76
2023-05-22T11:32:04.121Z,24.20
2023-05-22T11:37:27.268Z,25.25
2023-05-22T11:42:50.498Z,23.62
2023-05-22T11:48:15.890Z,23.14
2023-05-22T11:53:39.067Z,23.71
2023-05-22T11:59:02.810Z,25.11
2023-05-22T12:04:26.115Z,24.08
2023-05-22T12:09:51.189Z,23.48
2023-05-22T12:15:13.846Z,25.73
2023-05-22T12:20:38.259Z,26.28
2023-05-22T12:26:04.568Z,23.93
2023-05-22T12:31:33.708Z,24.60
2023-05-22T12:36:54.178Z,26.26
2023-05-22T12:42:17.775Z,24.45
2023-05-22T12:47:42.280Z,23.83
2023-05-22T12:53:04.988Z,24.54
2023-05-22T12:58:27.337Z,23.53
2023-05-22T13:03:50.277Z,22.33
2023-05-22T13:09:14.319Z,21.11
2023-05-22T13:14:38.515Z,21.20
2023-05-22T13:20:01.551Z,20.98
2023-05-22T13:25:24.766Z,22.69
2023-05-22T13:30:47.548Z,21.63
2023-05-22T13:36:10.538Z,21.24
2023-05-22T13:41:33.156Z,20.80
2023-05-22T13:46:55.617Z,21.23
2023-05-22T13:52:18.510Z,20.94
2023-05-22T13:57:41.684Z,22.79
2023-05-22T14:03:04.415Z,22.89
2023-05-22T14:08:27.479Z,22.61
2023-05-22T14:13:52.139Z,22.11
2023-05-22T14:19:14.611Z,21.35
2023-05-22T14:24:37.869Z,21.60
2023-05-22T14:30:00.817Z,24.56
2023-05-22T14:35:23.687Z,26.10
2023-05-22T14:40:46.406Z,26.65
2023-05-22T14:46:09.309Z,25.81
2023-05-22T14:51:33.043Z,25.84
2023-05-22T14:56:56.074Z,24.65
2023-05-22T15:02:19.445Z,24.56
2023-05-22T15:07:45.589Z,25.79
2023-05-22T15:13:06.708Z,26.43
2023-05-22T15:18:29.373Z,24.85
2023-05-22T15:23:52.023Z,23.81
2023-05-22T15:29:14.714Z,22.87
2023-05-22T15:34:37.101Z,22.96
2023-05-22T15:40:00.067Z,22.70
2023-05-22T15:45:22.619Z,22.34
2023-05-22T15:50:45.882Z,22.01
2023-05-22T15:56:10.363Z,22.25
2023-05-22T16:01:32.802Z,22.38
2023-05-22T16:06:55.282Z,24.11
2023-05-22T16:12:18.275Z,23.90
2023-05-22T16:17:40.924Z,23.54
2023-05-22T16:23:03.539Z,23.60
2023-05-22T16:28:26.043Z,24.16
2023-05-22T16:33:49.280Z,24.54
2023-05-22T16:39:11.585Z,22.78
2023-05-22T16:44:34.277Z,23.46
2023-05-22T16:49:58.874Z,23.71
2023-05-22T16:55:22.793Z,24.08
2023-05-22T17:00:45.086Z,24.62
2023-05-22T17:06:09.235Z,25.80
2023-05-22T17:11:31.578Z,27.92
2023-05-22T17:16:54.588Z,28.56
2023-05-22T17:22:17.156Z,29.42
2023-05-22T17:27:39.711Z,28.81
2023-05-22T17:33:03.996Z,28.83
2023-05-22T17:38:26.787Z,29.40
2023-05-22T17:43:49.909Z,29.78
2023-05-22T17:49:12.362Z,30.46
2023-05-22T17:54:36.842Z,31.30
2023-05-22T17:59:59.118Z,32.17
2023-05-22T18:05:22.897Z,33.68
2023-05-22T18:10:45.186Z,34.93
2023-05-22T18:16:08.066Z,36.43
2023-05-22T18:21:31.206Z,38.05
2023-05-22T18:26:55.008Z,39.80
2023-05-22T18:32:17.375Z,41.20
2023-05-22T18:37:39.788Z,42.83
2023-05-22T18:43:02.442Z,44.20
2023-05-22T18:48:25.275Z,44.86
2023-05-22T18:53:48.140Z,45.98
2023-05-22T18:59:10.925Z,47.72
2023-05-22T19:04:33.579Z,48.90
2023-05-22T19:09:56.167Z,49.80
2023-05-22T19:15:19.066Z,50.50
2023-05-22T19:20:42.172Z,50.02
2023-05-22T19:26:05.956Z,50.37
2023-05-22T19:31:29.650Z,50.77
2023-05-22T19:36:55.285Z,51.04
2023-05-22T19:42:18.557Z,52.00
2023-05-22T19:47:41.785Z,52.78
2023-05-22T19:53:04.642Z,53.27
2023-05-22T19:58:26.956Z,53.21
2023-05-22T20:03:49.635Z,52.03
2023-05-22T20:09:12.241Z,52.29
2023-05-22T20:14:34.731Z,52.24
2023-05-22T20:19:59.523Z,52.52
2023-05-22T20:25:22.540Z,53.25
2023-05-22T20:30:45.968Z,53.64
2023-05-22T20:36:09.123Z,54.59
2023-05-22T20:41:32.091Z,55.04
2023-05-22T20:46:55.080Z,55.57
2023-05-22T20:52:17.523Z,56.29
2023-05-22T20:57:40.684Z,57.13
2023-05-22T21:03:03.106Z,57.64
2023-05-22T21:08:25.717Z,57.66
2023-05-22T21:13:48.364Z,58.22
2023-05-22T21:19:10.686Z,58.90
2023-05-22T21:24:33.458Z,59.75
2023-05-22T21:29:55.751Z,60.04
2023-05-22T21:35:18.314Z,60.91
2023-05-22T21:40:42.505Z,62.13
2023-05-22T21:46:05.084Z,63.54
2023-05-22T21:51:27.437Z,64.45
2023-05-22T21:56:49.814Z,64.96
2023-05-22T22:02:12.276Z,65.34
2023-05-22T22:07:34.655Z,65.30
2023-05-22T22:12:57.024Z,65.12
2023-05-22T22:18:19.300Z,65.60
2023-05-22T22:23:41.669Z,65.85
2023-05-22T22:29:04.031Z,65.91
2023-05-22T22:34:26.331Z,67.02
2023-05-22T22:39:48.761Z,66.99
2023-05-22T22:45:11.445Z,67.19
2023-05-22T22:50:34.133Z,66.81
2023-05-22T22:55:59.555Z,66.44
2023-05-22T23:01:21.935Z,66.69
2023-05-22T23:06:44.215Z,66.75
2023-05-22T23:12:06.952Z,67.69
2023-05-22T23:17:29.654Z,67.84
2023-05-22T23:22:52.170Z,68.77
2023-05-22T23:28:14.465Z,69.44
2023-05-22T23:33:37.272Z,70.02
2023-05-22T23:39:00.064Z,70.48
2023-05-22T23:44:22.615Z,71.23
2023-05-22T23:49:45.002Z,71.79
2023-05-22T23:55:07.457Z,71.91
